createdAt,value
2018-09-06T00:01:16.278Z,6.00
2018-09-06T00:03:45.670Z,5.70
2018-09-06T00:06:13.814Z,5.77
2018-09-06T00:08:42.122Z,5.87
2018-09-06T00:11:11.921Z,6.20
2018-09-06T00:13:40.127Z,6.50
2018-09-06T00:16:08.218Z,6.20
2018-09-06T00:18:38.896Z,6.20
2018-09-06T00:21:07.346Z,5.87
2018-09-06T00:23:35.921Z,6.03
2018-09-06T00:26:04.142Z,6.07
2018-09-06T00:28:32.993Z,5.40
2018-09-06T00:31:00.866Z,6.33
2018-09-06T00:33:29.670Z,6.23
2018-09-06T00:35:59.322Z,5.90
2018-09-06T00:38:27.598Z,6.07
2018-09-06T00:41:01.866Z,5.67
2018-09-06T00:43:29.759Z,5.63
2018-09-06T00:45:57.642Z,5.33
2018-09-06T00:48:25.533Z,5.90
2018-09-06T00:50:54.805Z,5.97
2018-09-06T00:53:23.281Z,6.20
2018-09-06T00:55:52.189Z,6.00
2018-09-06T00:58:20.965Z,5.90
2018-09-06T01:00:49.180Z,6.10
2018-09-06T01:03:17.237Z,5.70
2018-09-06T01:05:46.657Z,5.60
2018-09-06T01:08:15.901Z,6.10
2018-09-06T01:10:45.000Z,5.65
2018-09-06T01:13:13.298Z,5.90
2018-09-06T01:15:41.905Z,6.20
2018-09-06T01:18:15.642Z,5.50
2018-09-06T01:20:43.901Z,6.03
2018-09-06T01:23:12.867Z,5.63
2018-09-06T01:25:48.166Z,5.90
2018-09-06T01:28:17.537Z,5.80
2018-09-06T01:30:45.809Z,5.80
2018-09-06T01:33:14.650Z,5.67
2018-09-06T01:35:47.097Z,5.87
2018-09-06T01:38:16.338Z,6.00
2018-09-06T01:40:45.125Z,5.87
2018-09-06T01:43:14.389Z,5.70
2018-09-06T01:45:42.977Z,6.07
2018-09-06T01:48:11.101Z,5.23
2018-09-06T01:50:40.235Z,5.70
2018-09-06T01:53:08.777Z,5.70
2018-09-06T01:55:39.696Z,6.03
2018-09-06T01:58:07.929Z,6.50
2018-09-06T02:00:35.833Z,6.13
2018-09-06T02:03:04.609Z,5.13
2018-09-06T02:05:35.925Z,5.40
2018-09-06T02:08:07.261Z,6.13
2018-09-06T02:10:36.477Z,5.40
2018-09-06T02:13:04.830Z,6.00
2018-09-06T02:15:33.048Z,5.90
2018-09-06T02:18:01.173Z,5.60
2018-09-06T02:20:29.849Z,5.37
2018-09-06T02:22:58.033Z,5.73
2018-09-06T02:25:26.030Z,5.67
2018-09-06T02:27:53.921Z,5.80
2018-09-06T02:30:23.181Z,6.00
2018-09-06T02:32:52.960Z,5.87
2018-09-06T02:35:20.849Z,5.83
2018-09-06T02:37:51.325Z,5.80
2018-09-06T02:40:24.674Z,5.90
2018-09-06T02:42:53.061Z,5.90
2018-09-06T02:45:21.996Z,5.43
2018-09-06T02:47:54.209Z,6.03
2018-09-06T02:50:27.741Z,5.87
2018-09-06T02:52:56.182Z,5.87
2018-09-06T02:55:27.766Z,5.77
2018-09-06T02:57:56.116Z,5.97
2018-09-06T03:00:30.303Z,5.77
2018-09-06T03:02:59.917Z,5.63
2018-09-06T03:05:28.990Z,5.60
2018-09-06T03:08:00.341Z,5.43
2018-09-06T03:10:35.345Z,5.67
2018-09-06T03:13:04.909Z,5.27
2018-09-06T03:15:35.363Z,5.50
2018-09-06T03:18:03.737Z,5.67
2018-09-06T03:20:32.056Z,5.50
2018-09-06T03:23:00.813Z,5.23
2018-09-06T03:25:29.922Z,5.43
2018-09-06T03:27:58.785Z,5.80
2018-09-06T03:30:28.473Z,5.50
2018-09-06T03:32:56.353Z,5.50
2018-09-06T03:35:24.226Z,5.17
2018-09-06T03:37:52.286Z,5.77
2018-09-06T03:40:20.156Z,5.63
2018-09-06T03:42:48.806Z,5.97
2018-09-06T03:45:17.870Z,5.83
2018-09-06T03:47:46.113Z,6.17
2018-09-06T03:50:14.514Z,5.83
2018-09-06T03:52:43.793Z,5.60
2018-09-06T03:55:13.377Z,5.77
2018-09-06T03:57:42.549Z,5.70
2018-09-06T04:00:12.235Z,5.60
2018-09-06T04:02:41.119Z,5.23
2018-09-06T04:05:09.870Z,5.83
2018-09-06T04:07:38.513Z,5.73
2018-09-06T04:10:11.501Z,6.10
2018-09-06T04:12:40.072Z,6.13
2018-09-06T04:15:08.352Z,5.90
2018-09-06T04:17:37.238Z,6.23
2018-09-06T04:20:05.489Z,5.63
2018-09-06T04:22:34.457Z,5.87
2018-09-06T04:25:03.161Z,5.37
2018-09-06T04:27:31.535Z,5.67
2018-09-06T04:30:00.339Z,5.63
2018-09-06T04:32:30.295Z,5.73
2018-09-06T04:35:00.056Z,5.60
2018-09-06T04:37:28.993Z,5.63
2018-09-06T04:39:58.173Z,5.60
2018-09-06T04:42:26.357Z,5.77
2018-09-06T04:44:54.485Z,5.83
2018-09-06T04:47:25.062Z,5.77
2018-09-06T04:49:54.204Z,6.13
2018-09-06T04:52:24.387Z,5.50
2018-09-06T04:54:53.491Z,5.80
2018-09-06T04:57:23.082Z,6.00
2018-09-06T04:59:51.213Z,5.60
2018-09-06T05:02:20.364Z,6.13
2018-09-06T05:04:48.249Z,5.57
2018-09-06T05:07:16.954Z,5.90
2018-09-06T05:09:44.846Z,6.30
2018-09-06T05:12:14.866Z,5.80
2018-09-06T05:14:43.922Z,6.63
2018-09-06T05:17:11.805Z,5.87
2018-09-06T05:19:40.157Z,6.13
2018-09-06T05:22:08.274Z,7.37
2018-09-06T05:24:36.225Z,5.63
2018-09-06T05:27:05.350Z,5.73
2018-09-06T05:29:33.240Z,5.73
2018-09-06T05:32:02.658Z,5.90
2018-09-06T05:34:31.213Z,6.10
2018-09-06T05:36:59.097Z,5.93
2018-09-06T05:39:27.105Z,6.13
2018-09-06T05:41:55.163Z,6.20
2018-09-06T05:44:26.342Z,5.87
2018-09-06T05:46:54.382Z,5.77
2018-09-06T05:49:23.367Z,5.93
2018-09-06T05:51:52.385Z,5.57
2018-09-06T05:54:21.314Z,5.70
2018-09-06T05:56:50.105Z,5.87
2018-09-06T05:59:18.129Z,5.70
2018-09-06T06:01:46.885Z,6.10
2018-09-06T06:04:14.888Z,5.90
2018-09-06T06:06:44.069Z,6.03
2018-09-06T06:09:11.970Z,5.70
2018-09-06T06:11:40.279Z,5.87
2018-09-06T06:14:08.713Z,5.70
2018-09-06T06:16:36.593Z,6.10
2018-09-06T06:19:05.102Z,5.90
2018-09-06T06:21:33.001Z,6.47
2018-09-06T06:24:01.232Z,8.07
2018-09-06T06:26:30.301Z,11.83
2018-09-06T06:29:00.039Z,11.43
2018-09-06T06:31:28.106Z,11.43
2018-09-06T06:33:57.036Z,11.37
2018-09-06T06:36:26.145Z,10.67
2018-09-06T06:38:55.084Z,11.27
2018-09-06T06:41:24.953Z,10.90
2018-09-06T06:43:55.321Z,10.07
2018-09-06T06:46:23.203Z,11.57
2018-09-06T06:48:52.122Z,10.77
2018-09-06T06:51:20.560Z,10.97
2018-09-06T06:53:48.957Z,11.17
2018-09-06T06:56:17.070Z,12.93
2018-09-06T06:58:45.446Z,11.20
2018-09-06T07:01:13.786Z,12.10
2018-09-06T07:03:45.422Z,11.10
2018-09-06T07:06:14.573Z,10.80
2018-09-06T07:08:44.226Z,11.83
2018-09-06T07:11:12.827Z,9.70
2018-09-06T07:13:41.982Z,10.57
2018-09-06T07:16:10.224Z,11.93
2018-09-06T07:18:39.092Z,12.87
2018-09-06T07:21:08.273Z,12.97
2018-09-06T07:23:36.153Z,13.80
2018-09-06T07:26:04.092Z,13.77
2018-09-06T07:28:36.024Z,76.57
2018-09-06T07:31:04.978Z,51.70
2018-09-06T07:33:33.027Z,30.77
2018-09-06T07:36:01.845Z,23.93
2018-09-06T07:38:32.291Z,18.97
2018-09-06T07:41:00.181Z,16.63
2018-09-06T07:43:29.670Z,16.80
2018-09-06T07:45:57.857Z,14.67
2018-09-06T07:48:26.773Z,11.73
2018-09-06T07:50:58.369Z,14.37
2018-09-06T07:53:27.873Z,15.57
2018-09-06T07:55:57.455Z,13.63
2018-09-06T07:58:26.460Z,11.83
2018-09-06T08:00:55.633Z,14.97
2018-09-06T08:03:24.460Z,11.27
2018-09-06T08:05:52.929Z,11.63
2018-09-06T08:08:20.804Z,12.47
2018-09-06T08:10:50.680Z,12.60
2018-09-06T08:13:19.982Z,11.43
2018-09-06T08:15:48.665Z,10.03
2018-09-06T08:18:18.886Z,9.43
2018-09-06T08:23:23.774Z,10.47
2018-09-06T08:25:52.473Z,11.33
2018-09-06T08:28:20.683Z,12.63
2018-09-06T08:30:49.739Z,9.47
2018-09-06T08:33:18.491Z,8.87
2018-09-06T08:35:46.518Z,10.23
2018-09-06T08:38:14.476Z,10.60
2018-09-06T08:43:25.157Z,10.10
2018-09-06T08:45:53.690Z,12.87
2018-09-06T08:48:21.717Z,34.20
2018-09-06T08:50:49.782Z,26.87
2018-09-06T08:53:19.220Z,25.47
2018-09-06T08:55:47.106Z,27.17
2018-09-06T08:58:15.049Z,89.53
2018-09-06T09:00:48.145Z,47.97
2018-09-06T09:03:17.491Z,41.30
2018-09-06T09:05:46.328Z,39.53
2018-09-06T09:08:14.230Z,24.60
2018-09-06T09:10:42.335Z,15.90
2018-09-06T09:13:12.000Z,22.27
2018-09-06T09:15:41.561Z,16.27
2018-09-06T09:18:09.644Z,14.43
2018-09-06T09:20:38.885Z,13.57
2018-09-06T09:23:09.051Z,15.67
2018-09-06T09:25:38.925Z,20.33
2018-09-06T09:28:07.264Z,14.73
2018-09-06T09:30:37.133Z,12.90
2018-09-06T09:33:05.679Z,10.97
2018-09-06T09:35:33.785Z,12.17
2018-09-06T09:38:04.478Z,14.10
2018-09-06T09:40:33.382Z,9.30
2018-09-06T09:43:01.397Z,10.77
2018-09-06T09:45:31.976Z,9.57
2018-09-06T09:48:01.606Z,8.83
2018-09-06T09:52:57.818Z,14.07
2018-09-06T09:55:26.942Z,145.50
2018-09-06T09:57:55.661Z,103.60
2018-09-06T10:00:29.229Z,92.20
2018-09-06T10:03:02.613Z,78.97
2018-09-06T10:05:38.741Z,66.93
2018-09-06T10:08:12.094Z,45.57
2018-09-06T10:10:40.294Z,39.87
2018-09-06T10:13:08.605Z,44.07
2018-09-06T10:15:37.864Z,29.23
2018-09-06T10:18:06.925Z,22.67
2018-09-06T10:20:35.214Z,20.10
2018-09-06T10:23:05.258Z,15.27
2018-09-06T10:25:34.381Z,14.70
2018-09-06T10:28:02.980Z,11.10
2018-09-06T10:30:31.204Z,10.47
2018-09-06T10:32:59.436Z,8.37
2018-09-06T10:35:28.611Z,11.30
2018-09-06T10:37:57.937Z,11.33
2018-09-06T10:40:27.540Z,8.77
2018-09-06T10:42:56.890Z,12.03
2018-09-06T10:45:25.517Z,13.73
2018-09-06T10:47:53.868Z,11.23
2018-09-06T10:50:22.772Z,9.10
2018-09-06T10:52:51.599Z,8.83
2018-09-06T10:55:20.488Z,9.03
2018-09-06T10:57:49.633Z,10.20
2018-09-06T11:00:18.990Z,8.90
2018-09-06T11:02:48.800Z,8.60
2018-09-06T11:05:20.592Z,9.50
2018-09-06T11:07:48.495Z,8.33
2018-09-06T11:10:17.034Z,11.50
2018-09-06T11:12:45.358Z,9.47
2018-09-06T11:15:14.078Z,8.60
2018-09-06T11:17:42.441Z,9.03
2018-09-06T11:20:10.340Z,10.60
2018-09-06T11:22:38.871Z,8.70
2018-09-06T11:25:10.491Z,9.30
2018-09-06T11:27:39.542Z,10.13
2018-09-06T11:30:08.336Z,9.53
2018-09-06T11:32:36.547Z,9.80
2018-09-06T11:35:05.800Z,9.33
2018-09-06T11:37:34.098Z,9.77
2018-09-06T11:40:04.185Z,10.23
2018-09-06T11:42:32.823Z,10.17
2018-09-06T11:45:01.070Z,10.70
2018-09-06T11:47:29.169Z,10.50
2018-09-06T11:49:56.906Z,10.47
2018-09-06T11:52:25.265Z,10.80
2018-09-06T11:54:53.352Z,10.50
2018-09-06T11:57:21.409Z,10.17
2018-09-06T11:59:49.841Z,10.73
2018-09-06T12:02:19.344Z,10.77
2018-09-06T12:04:48.398Z,11.40
2018-09-06T12:07:27.106Z,10.40
2018-09-06T12:09:58.398Z,10.87
2018-09-06T12:12:27.017Z,10.40
2018-09-06T12:14:56.397Z,11.13
2018-09-06T12:17:25.125Z,10.10
2018-09-06T12:19:53.652Z,10.50
2018-09-06T12:22:21.549Z,11.30
2018-09-06T12:24:50.682Z,13.80
2018-09-06T12:27:20.341Z,16.83
2018-09-06T12:29:50.449Z,15.13
2018-09-06T12:32:19.432Z,14.93
2018-09-06T12:34:49.762Z,14.33
2018-09-06T12:37:18.333Z,14.53
2018-09-06T12:39:47.157Z,13.07
2018-09-06T12:42:15.012Z,14.17
2018-09-06T12:44:43.917Z,12.70
2018-09-06T12:47:12.694Z,12.13
2018-09-06T12:49:40.992Z,14.40
2018-09-06T12:52:08.837Z,12.37
2018-09-06T12:54:36.957Z,14.10
2018-09-06T12:57:04.882Z,11.80
2018-09-06T12:59:35.713Z,18.47
2018-09-06T13:02:03.630Z,16.07
2018-09-06T13:04:31.526Z,16.40
2018-09-06T13:06:59.984Z,13.43
2018-09-06T13:09:29.682Z,13.40
2018-09-06T13:11:59.273Z,22.77
2018-09-06T13:14:28.441Z,14.90
2018-09-06T13:16:57.393Z,16.20
2018-09-06T13:19:26.641Z,15.70
2018-09-06T13:21:55.082Z,14.47
2018-09-06T13:24:24.430Z,15.10
2018-09-06T13:26:52.954Z,15.63
2018-09-06T13:29:21.805Z,21.20
2018-09-06T13:31:51.303Z,17.13
2018-09-06T13:34:20.243Z,18.10
2018-09-06T13:36:48.619Z,17.00
2018-09-06T13:39:18.273Z,18.33
2018-09-06T13:41:46.170Z,18.07
2018-09-06T13:44:15.654Z,17.27
2018-09-06T13:46:43.593Z,20.83
2018-09-06T13:49:11.758Z,17.80
2018-09-06T13:51:41.102Z,16.70
2018-09-06T13:54:09.873Z,19.45
2018-09-06T13:56:37.769Z,16.30
2018-09-06T13:59:07.507Z,17.43
2018-09-06T14:01:35.718Z,15.53
2018-09-06T14:04:03.688Z,15.80
2018-09-06T14:06:31.794Z,19.60
2018-09-06T14:09:05.801Z,16.07
2018-09-06T14:11:33.765Z,16.07
2018-09-06T14:14:03.145Z,14.77
2018-09-06T14:16:33.331Z,15.33
2018-09-06T14:19:01.169Z,15.47
2018-09-06T14:21:30.070Z,14.30
2018-09-06T14:23:58.122Z,24.97
2018-09-06T14:26:26.013Z,24.63
2018-09-06T14:28:53.917Z,22.10
2018-09-06T14:31:22.026Z,19.17
2018-09-06T14:33:50.390Z,19.07
2018-09-06T14:36:27.217Z,18.30
2018-09-06T14:38:55.767Z,15.77
2018-09-06T14:41:24.513Z,13.83
2018-09-06T14:43:52.397Z,13.43
2018-09-06T14:46:21.303Z,14.07
2018-09-06T14:48:50.150Z,15.43
2018-09-06T14:51:19.338Z,11.90
2018-09-06T14:53:47.257Z,13.73
2018-09-06T14:56:15.558Z,15.20
2018-09-06T14:58:44.934Z,19.23
2018-09-06T15:01:12.998Z,17.77
2018-09-06T15:03:41.381Z,16.20
2018-09-06T15:06:09.714Z,13.37
2018-09-06T15:08:39.053Z,14.33
2018-09-06T15:11:07.826Z,14.13
2018-09-06T15:13:36.736Z,14.23
2018-09-06T15:16:05.124Z,11.90
2018-09-06T15:18:33.030Z,14.37
2018-09-06T15:21:01.625Z,12.37
2018-09-06T15:23:32.550Z,13.50
2018-09-06T15:26:01.264Z,15.43
2018-09-06T15:28:30.694Z,14.80
2018-09-06T15:30:59.457Z,13.57
2018-09-06T15:33:30.214Z,13.13
2018-09-06T15:36:01.491Z,22.57
2018-09-06T15:38:31.542Z,13.00
2018-09-06T15:41:00.086Z,14.00
2018-09-06T15:43:31.074Z,13.30
2018-09-06T15:45:59.773Z,13.27
2018-09-06T15:48:33.836Z,13.67
2018-09-06T15:51:03.513Z,13.93
2018-09-06T15:53:34.762Z,15.50
2018-09-06T15:56:03.272Z,13.70
2018-09-06T15:58:32.287Z,16.77
2018-09-06T16:01:00.642Z,14.23
2018-09-06T16:03:28.574Z,19.23
2018-09-06T16:05:56.621Z,15.20
2018-09-06T16:08:27.706Z,14.73
2018-09-06T16:10:55.870Z,13.93
2018-09-06T16:13:25.046Z,13.97
2018-09-06T16:15:54.369Z,15.83
2018-09-06T16:18:22.274Z,16.33
2018-09-06T16:20:51.031Z,14.30
2018-09-06T16:23:19.293Z,15.87
2018-09-06T16:25:48.709Z,13.53
2018-09-06T16:28:16.621Z,15.50
2018-09-06T16:30:44.705Z,16.27
2018-09-06T16:33:13.266Z,16.67
2018-09-06T16:35:41.729Z,12.47
2018-09-06T16:38:11.037Z,15.07
2018-09-06T16:40:40.005Z,13.53
2018-09-06T16:43:08.141Z,11.63
2018-09-06T16:45:36.814Z,11.47
2018-09-06T16:48:04.728Z,10.50
2018-09-06T16:50:32.647Z,13.50
2018-09-06T16:53:04.862Z,11.43
2018-09-06T16:55:34.126Z,11.57
2018-09-06T16:58:02.106Z,8.60
2018-09-06T17:00:30.713Z,10.53
2018-09-06T17:02:58.683Z,8.83
2018-09-06T17:05:27.983Z,11.13
2018-09-06T17:07:57.298Z,12.17
2018-09-06T17:10:26.030Z,9.23
2018-09-06T17:12:53.910Z,9.30
2018-09-06T17:15:23.494Z,8.60
2018-09-06T17:17:52.540Z,9.57
2018-09-06T17:20:21.336Z,9.10
2018-09-06T17:22:49.718Z,8.80
2018-09-06T17:25:19.530Z,8.93
2018-09-06T17:27:47.846Z,8.40
2018-09-06T17:30:16.049Z,8.90
2018-09-06T17:32:43.979Z,8.67
2018-09-06T17:35:11.829Z,8.57
2018-09-06T17:37:40.093Z,9.50
2018-09-06T17:40:08.221Z,9.37
2018-09-06T17:42:36.991Z,8.83
2018-09-06T17:45:07.605Z,8.80
2018-09-06T17:47:36.493Z,9.13
2018-09-06T17:50:04.361Z,8.07
2018-09-06T17:52:34.852Z,8.20
2018-09-06T17:55:03.246Z,10.40
2018-09-06T17:57:32.038Z,8.07
2018-09-06T18:00:01.348Z,8.23
2018-09-06T18:02:30.529Z,8.67
2018-09-06T18:04:59.521Z,8.13
2018-09-06T18:07:28.722Z,8.83
2018-09-06T18:09:57.802Z,7.77
2018-09-06T18:12:25.686Z,8.50
2018-09-06T18:14:55.173Z,8.43
2018-09-06T18:17:23.087Z,8.03
2018-09-06T18:19:51.315Z,8.63
2018-09-06T18:22:20.113Z,8.70
2018-09-06T18:24:52.950Z,8.00
2018-09-06T18:27:22.775Z,8.20
2018-09-06T18:29:52.232Z,8.47
2018-09-06T18:32:22.801Z,8.80
2018-09-06T18:34:51.577Z,9.40
2018-09-06T18:37:19.658Z,8.30
2018-09-06T18:39:48.097Z,7.87
2018-09-06T18:42:16.098Z,7.67
2018-09-06T18:44:43.995Z,7.67
2018-09-06T18:47:11.934Z,7.80
2018-09-06T18:49:42.028Z,7.13
2018-09-06T18:52:10.681Z,8.00
2018-09-06T18:54:39.677Z,8.27
2018-09-06T18:57:09.589Z,7.83
2018-09-06T18:59:39.448Z,7.67
2018-09-06T19:02:08.752Z,7.93
2018-09-06T19:04:37.241Z,7.40
2018-09-06T19:07:08.680Z,8.07
2018-09-06T19:09:37.693Z,7.67
2018-09-06T19:12:06.157Z,7.70
2018-09-06T19:14:35.729Z,7.87
2018-09-06T19:17:03.982Z,7.97
2018-09-06T19:19:32.905Z,7.77
2018-09-06T19:22:01.349Z,7.30
2018-09-06T19:24:29.221Z,7.77
2018-09-06T19:26:58.598Z,7.13
2018-09-06T19:29:27.573Z,7.10
2018-09-06T19:31:55.682Z,8.03
2018-09-06T19:34:24.750Z,8.03
2018-09-06T19:36:53.611Z,7.70
2018-09-06T19:39:23.088Z,7.50
2018-09-06T19:41:50.984Z,7.90
2018-09-06T19:44:19.532Z,7.07
2018-09-06T19:46:49.753Z,7.47
2018-09-06T19:49:18.594Z,7.80
2018-09-06T19:51:47.753Z,7.10
2018-09-06T19:54:17.103Z,7.70
2018-09-06T19:56:44.977Z,7.60
2018-09-06T19:59:13.941Z,7.73
2018-09-06T20:01:42.625Z,7.13
2018-09-06T20:04:10.558Z,7.47
2018-09-06T20:06:40.160Z,7.23
2018-09-06T20:09:09.437Z,7.00
2018-09-06T20:11:39.017Z,6.90
2018-09-06T20:14:07.777Z,7.50
2018-09-06T20:16:37.399Z,7.27
2018-09-06T20:19:05.953Z,7.20
2018-09-06T20:21:35.964Z,7.47
2018-09-06T20:24:03.877Z,7.10
2018-09-06T20:26:32.637Z,7.17
2018-09-06T20:29:00.643Z,7.10
2018-09-06T20:31:28.917Z,6.50
2018-09-06T20:33:56.797Z,7.10
2018-09-06T20:36:25.328Z,6.87
2018-09-06T20:38:53.914Z,6.97
2018-09-06T20:41:22.418Z,7.20
2018-09-06T20:43:50.299Z,7.57
2018-09-06T20:46:19.638Z,6.63
2018-09-06T20:48:48.038Z,7.00
2018-09-06T20:51:16.453Z,6.60
2018-09-06T20:53:44.823Z,7.20
2018-09-06T20:56:12.818Z,7.23
2018-09-06T20:58:40.817Z,7.37
2018-09-06T21:01:08.957Z,7.10
2018-09-06T21:03:38.401Z,6.77
2018-09-06T21:06:06.297Z,7.10
2018-09-06T21:08:34.669Z,6.67
2018-09-06T21:11:03.378Z,6.53
2018-09-06T21:13:33.185Z,7.00
2018-09-06T21:16:02.457Z,7.10
2018-09-06T21:18:31.293Z,6.90
2018-09-06T21:21:00.168Z,6.93
2018-09-06T21:23:28.814Z,6.53
2018-09-06T21:25:57.958Z,7.07
2018-09-06T21:28:26.601Z,6.93
2018-09-06T21:30:54.472Z,6.53
2018-09-06T21:33:22.937Z,6.80
2018-09-06T21:35:53.385Z,7.03
2018-09-06T21:38:24.517Z,7.10
2018-09-06T21:40:53.851Z,6.60
2018-09-06T21:43:22.297Z,6.53
2018-09-06T21:45:50.998Z,6.70
2018-09-06T21:48:20.258Z,6.67
2018-09-06T21:50:48.338Z,6.80
2018-09-06T21:53:16.540Z,6.30
2018-09-06T21:55:45.713Z,6.40
2018-09-06T21:58:14.585Z,7.00
2018-09-06T22:00:46.257Z,7.00
2018-09-06T22:03:20.073Z,6.93
2018-09-06T22:05:47.952Z,6.90
2018-09-06T22:08:19.161Z,6.17
2018-09-06T22:10:48.070Z,6.73
2018-09-06T22:13:18.183Z,6.53
2018-09-06T22:15:46.050Z,6.30
2018-09-06T22:18:16.929Z,6.27
2018-09-06T22:20:45.625Z,7.00
2018-09-06T22:23:13.714Z,6.73
2018-09-06T22:25:42.209Z,6.70
2018-09-06T22:28:11.218Z,6.57
2018-09-06T22:30:39.610Z,6.83
2018-09-06T22:33:08.525Z,6.70
2018-09-06T22:35:40.966Z,6.60
2018-09-06T22:38:09.773Z,7.17
2018-09-06T22:40:40.804Z,6.50
2018-09-06T22:43:10.092Z,6.63
2018-09-06T22:45:38.466Z,6.50
2018-09-06T22:48:07.156Z,6.50
2018-09-06T22:50:36.385Z,6.83
2018-09-06T22:53:06.076Z,7.27
2018-09-06T22:55:33.957Z,6.53
2018-09-06T22:58:03.082Z,6.50
2018-09-06T23:00:31.889Z,6.97
2018-09-06T23:03:05.841Z,6.70
2018-09-06T23:05:35.901Z,7.03
2018-09-06T23:08:04.312Z,7.07
2018-09-06T23:10:32.975Z,7.37
2018-09-06T23:13:01.738Z,6.60
2018-09-06T23:15:30.417Z,6.83
2018-09-06T23:18:00.450Z,7.13
2018-09-06T23:20:29.561Z,6.40
2018-09-06T23:22:57.533Z,7.20
2018-09-06T23:25:26.469Z,7.23
2018-09-06T23:27:54.864Z,7.20
2018-09-06T23:30:23.213Z,6.97
2018-09-06T23:32:51.353Z,7.47
2018-09-06T23:35:19.406Z,6.80
2018-09-06T23:37:47.765Z,7.30
2018-09-06T23:40:17.546Z,6.90
2018-09-06T23:42:46.174Z,7.23
2018-09-06T23:45:14.066Z,6.77
2018-09-06T23:47:42.829Z,6.83
2018-09-06T23:50:10.761Z,7.30
2018-09-06T23:52:40.232Z,7.47
2018-09-06T23:55:09.043Z,7.67
2018-09-06T23:57:37.290Z,8.03
